Time;durP1;ratioP1;P1;durP2;ratioP2;P2;SDS_P1;SDS_P2;PMS_P1;PMS_P2;Temp;Humidity;BMP_temperature;BMP_pressure;BME280_temperature;BME280_humidity;BME280_pressure;Samples;Min_cycle;Max_cycle;Signal;HPM_P1;HPM_P2
2022/01/18 00:02:40;;;;;;;;;;;21.20;42.00;;;;;;6354792;27;20051;-43
2022/01/18 00:05:43;;;;;;;;;;;20.90;41.90;;;;;;6359444;27;20425;-43
2022/01/18 00:08:44;;;;;;;;;;;21.30;41.80;;;;;;6336982;27;20572;-43
2022/01/18 00:11:51;;;;;;;;;;;20.80;41.70;;;;;;6354621;27;20870;-45
2022/01/18 00:15:17;;;;;;;;;;;21.30;41.80;;;;;;6353503;27;19978;-43
2022/01/18 00:18:18;;;;;;;;;;;20.80;41.80;;;;;;6324666;27;19934;-43
2022/01/18 00:21:32;;;;;;;;;;;20.80;41.70;;;;;;6358589;27;19926;-42
2022/01/18 00:24:33;;;;;;;;;;;21.10;41.80;;;;;;6355785;27;19969;-44
2022/01/18 00:27:35;;;;;;;;;;;21.10;41.70;;;;;;6355663;27;19931;-44
2022/01/18 00:31:02;;;;;;;;;;;21.00;41.80;;;;;;6358376;27;20338;-48
2022/01/18 00:34:07;;;;;;;;;;;20.80;41.80;;;;;;6353130;27;19931;-48
2022/01/18 00:40:30;;;;;;;;;;;21.10;41.80;;;;;;6356313;27;19931;-45
2022/01/18 00:43:31;;;;;;;;;;;20.80;41.80;;;;;;6355433;27;19927;-45
2022/01/18 00:46:33;;;;;;;;;;;20.80;41.80;;;;;;6356118;27;19946;-46
2022/01/18 00:49:41;;;;;;;;;;;20.10;41.30;;;;;;6357070;27;20039;-46
2022/01/18 00:52:49;;;;;;;;;;;20.80;41.80;;;;;;6356259;27;19927;-44
2022/01/18 00:56:03;;;;;;;;;;;20.90;41.90;;;;;;6352667;27;19934;-46
2022/01/18 00:59:05;;;;;;;;;;;20.50;41.50;;;;;;6355610;27;20618;-45
2022/01/18 01:02:06;;;;;;;;;;;21.50;42.00;;;;;;6353379;27;19928;-46
2022/01/18 01:05:08;;;;;;;;;;;20.80;41.70;;;;;;6338695;27;19975;-44
2022/01/18 01:08:10;;;;;;;;;;;20.80;41.70;;;;;;6356643;27;19934;-43
2022/01/18 01:11:12;;;;;;;;;;;20.90;41.80;;;;;;6356934;27;20023;-45
2022/01/18 01:14:18;;;;;;;;;;;20.70;41.60;;;;;;6359531;27;19934;-48
2022/01/18 01:17:33;;;;;;;;;;;20.80;41.70;;;;;;6339578;27;19970;-45
2022/01/18 01:43:19;;;;;;;;;;;20.70;41.70;;;;;;6358535;27;19927;-45
2022/01/18 01:46:22;;;;;;;;;;;20.70;41.60;;;;;;6360698;27;19931;-44
2022/01/18 01:49:25;;;;;;;;;;;20.70;42.20;;;;;;6349758;27;19931;-44
2022/01/18 01:52:27;;;;;;;;;;;20.70;41.70;;;;;;6354039;27;20038;-44
2022/01/18 01:55:28;;;;;;;;;;;21.20;41.90;;;;;;6351033;27;19927;-43
2022/01/18 01:58:30;;;;;;;;;;;20.70;41.70;;;;;;6352494;27;20207;-43
2022/01/18 02:01:39;;;;;;;;;;;20.60;41.50;;;;;;6346891;27;20770;-44
2022/01/18 02:04:41;;;;;;;;;;;21.20;41.80;;;;;;6330763;27;20224;-44
2022/01/18 02:07:42;;;;;;;;;;;21.10;41.90;;;;;;6348893;27;19943;-43
2022/01/18 02:10:44;;;;;;;;;;;20.80;41.80;;;;;;6353264;27;19927;-44
2022/01/18 02:13:47;;;;;;;;;;;20.80;41.70;;;;;;6353231;27;20467;-43
2022/01/18 02:23:20;;;;;;;;;;;21.00;41.50;;;;;;6347922;27;20015;-43
2022/01/18 02:26:21;;;;;;;;;;;20.90;41.70;;;;;;6349623;27;20005;-44
2022/01/18 02:29:22;;;;;;;;;;;20.70;41.60;;;;;;6353947;27;19969;-44
2022/01/18 02:32:24;;;;;;;;;;;20.80;41.70;;;;;;6354013;27;19928;-44
2022/01/18 02:35:26;;;;;;;;;;;21.10;41.60;;;;;;6353095;27;20280;-43
2022/01/18 02:38:27;;;;;;;;;;;20.60;41.60;;;;;;6349728;27;19967;-44
2022/01/18 02:41:30;;;;;;;;;;;20.70;41.70;;;;;;6352381;27;20090;-43
2022/01/18 02:44:32;;;;;;;;;;;20.90;41.70;;;;;;6350803;27;20043;-43
2022/01/18 02:47:34;;;;;;;;;;;21.00;41.90;;;;;;6332184;27;20053;-43
2022/01/18 02:50:36;;;;;;;;;;;21.10;41.90;;;;;;6349562;27;19931;-43
2022/01/18 02:53:52;;;;;;;;;;;20.60;41.70;;;;;;6352583;27;20030;-44
2022/01/18 02:56:58;;;;;;;;;;;20.70;41.50;;;;;;6331298;27;19927;-44
2022/01/18 03:00:14;;;;;;;;;;;20.70;41.60;;;;;;6349443;27;20054;-43
2022/01/18 03:03:17;;;;;;;;;;;20.80;41.80;;;;;;6347364;27;19934;-44
2022/01/18 03:06:19;;;;;;;;;;;21.10;41.90;;;;;;6349097;27;19931;-44
2022/01/18 03:09:20;;;;;;;;;;;20.50;41.60;;;;;;6334689;27;20055;-45
2022/01/18 03:12:22;;;;;;;;;;;21.20;42.00;;;;;;6347913;27;20135;-44
2022/01/18 03:15:23;;;;;;;;;;;20.50;41.60;;;;;;6347768;27;19938;-44
2022/01/18 03:18:24;;;;;;;;;;;20.90;41.90;;;;;;6346145;27;19970;-45
2022/01/18 03:21:26;;;;;;;;;;;20.70;41.60;;;;;;6350309;27;19936;-44
2022/01/18 03:31:00;;;;;;;;;;;20.70;41.60;;;;;;6347726;27;19938;-44
2022/01/18 03:34:02;;;;;;;;;;;20.60;41.30;;;;;;6353904;27;19967;-43
2022/01/18 03:37:04;;;;;;;;;;;21.10;41.70;;;;;;6358463;27;19964;-47
2022/01/18 03:40:06;;;;;;;;;;;20.60;41.60;;;;;;6354141;27;19927;-44
2022/01/18 03:43:11;;;;;;;;;;;20.70;41.60;;;;;;6348336;27;20205;-45
2022/01/18 03:46:12;;;;;;;;;;;21.10;41.90;;;;;;6333173;27;20390;-44
2022/01/18 03:49:13;;;;;;;;;;;21.10;42.00;;;;;;6343606;27;20062;-43
2022/01/18 03:52:15;;;;;;;;;;;21.00;41.80;;;;;;6346700;27;20590;-44
2022/01/18 03:55:19;;;;;;;;;;;20.90;41.70;;;;;;6350542;27;20939;-44
2022/01/18 03:58:20;;;;;;;;;;;20.30;41.30;;;;;;6350460;27;20023;-44
2022/01/18 04:01:22;;;;;;;;;;;20.70;41.70;;;;;;6331269;27;20357;-43
2022/01/18 04:04:28;;;;;;;;;;;20.70;41.60;;;;;;6344414;27;20006;-44
2022/01/18 04:07:30;;;;;;;;;;;21.00;41.70;;;;;;6353469;27;20354;-44
2022/01/18 04:10:31;;;;;;;;;;;21.00;41.90;;;;;;6351739;27;19931;-45
2022/01/18 04:13:32;;;;;;;;;;;20.50;41.50;;;;;;6348098;27;19930;-41
2022/01/18 04:16:43;;;;;;;;;;;20.60;41.70;;;;;;6353962;27;20790;-40
2022/01/18 04:29:31;;;;;;;;;;;20.90;41.70;;;;;;6357005;27;20045;-46
2022/01/18 04:32:33;;;;;;;;;;;20.60;41.80;;;;;;6357691;27;19928;-42
2022/01/18 04:35:34;;;;;;;;;;;20.70;41.70;;;;;;6358794;27;21313;-42
2022/01/18 04:38:36;;;;;;;;;;;21.20;41.90;;;;;;6360800;27;19995;-39
2022/01/18 04:41:38;;;;;;;;;;;20.60;41.70;;;;;;6359467;27;20730;-45
2022/01/18 04:51:11;;;;;;;;;;;20.60;41.60;;;;;;6354108;27;19984;-43
2022/01/18 04:54:15;;;;;;;;;;;20.60;41.70;;;;;;6357830;27;19965;-43
2022/01/18 05:00:31;;;;;;;;;;;20.60;41.70;;;;;;6360346;27;20073;-42
2022/01/18 05:03:34;;;;;;;;;;;21.00;42.00;;;;;;6361749;27;20030;-44
2022/01/18 05:06:36;;;;;;;;;;;20.80;41.70;;;;;;6363169;27;19931;-44
2022/01/18 05:09:37;;;;;;;;;;;21.30;42.00;;;;;;6359494;27;19934;-41
2022/01/18 05:12:45;;;;;;;;;;;20.70;41.60;;;;;;6353941;27;20472;-42
2022/01/18 05:15:52;;;;;;;;;;;20.50;41.50;;;;;;6355475;27;20037;-44
2022/01/18 05:19:04;;;;;;;;;;;20.60;41.80;;;;;;6355520;27;20043;-43
2022/01/18 05:25:22;;;;;;;;;;;20.40;41.50;;;;;;6347034;27;19970;-42
2022/01/18 05:28:23;;;;;;;;;;;21.20;41.60;;;;;;6358718;27;20039;-43
2022/01/18 05:31:25;;;;;;;;;;;20.50;41.70;;;;;;6354014;27;20006;-46
2022/01/18 05:34:27;;;;;;;;;;;20.60;41.60;;;;;;6336830;27;19931;-41
2022/01/18 05:37:28;;;;;;;;;;;20.50;41.70;;;;;;6346249;27;19970;-41
2022/01/18 05:40:30;;;;;;;;;;;21.10;42.10;;;;;;6351655;27;19927;-41
2022/01/18 05:43:32;;;;;;;;;;;20.80;41.80;;;;;;6347838;27;20448;-41
2022/01/18 05:46:33;;;;;;;;;;;20.70;41.80;;;;;;6325327;27;20776;-43
2022/01/18 05:49:35;;;;;;;;;;;20.80;41.90;;;;;;6333640;27;19931;-42
2022/01/18 05:52:36;;;;;;;;;;;20.50;41.80;;;;;;6346083;27;20369;-42
2022/01/18 05:55:38;;;;;;;;;;;20.40;41.70;;;;;;6343472;27;19981;-41
2022/01/18 05:58:41;;;;;;;;;;;20.50;41.80;;;;;;6342746;27;20488;-43
2022/01/18 06:01:48;;;;;;;;;;;20.60;41.70;;;;;;6341242;27;20137;-43
2022/01/18 06:08:02;;;;;;;;;;;20.80;41.90;;;;;;6350156;27;19931;-46
2022/01/18 06:11:04;;;;;;;;;;;20.80;41.80;;;;;;6350201;27;20004;-44
2022/01/18 06:14:06;;;;;;;;;;;20.50;41.70;;;;;;6345938;27;19927;-45
2022/01/18 06:17:07;;;;;;;;;;;20.40;41.80;;;;;;6348432;27;20003;-43
2022/01/18 06:20:09;;;;;;;;;;;20.60;41.90;;;;;;6350257;27;20738;-44
2022/01/18 06:23:11;;;;;;;;;;;20.40;41.70;;;;;;6350441;27;20643;-43
2022/01/18 06:26:16;;;;;;;;;;;20.90;42.10;;;;;;6347316;27;19970;-43
2022/01/18 06:29:18;;;;;;;;;;;20.30;41.70;;;;;;6349709;27;19931;-45
2022/01/18 06:32:19;;;;;;;;;;;20.30;41.70;;;;;;6348833;27;20686;-42
2022/01/18 06:35:21;;;;;;;;;;;21.50;42.30;;;;;;6350169;27;20045;-44
2022/01/18 06:38:23;;;;;;;;;;;20.40;41.70;;;;;;6347795;27;19975;-45
2022/01/18 06:41:25;;;;;;;;;;;20.50;41.40;;;;;;6345706;27;19934;-44
2022/01/18 06:44:26;;;;;;;;;;;20.20;41.60;;;;;;6344419;27;20037;-42
2022/01/18 06:47:28;;;;;;;;;;;20.30;41.60;;;;;;6340619;27;20014;-40
2022/01/18 06:50:29;;;;;;;;;;;20.50;41.80;;;;;;6341994;27;20642;-43
2022/01/18 06:53:33;;;;;;;;;;;20.50;41.60;;;;;;6343086;27;20743;-43
2022/01/18 06:56:35;;;;;;;;;;;20.40;41.40;;;;;;6338518;27;19931;-46
2022/01/18 06:59:36;;;;;;;;;;;20.30;41.40;;;;;;6327916;27;20109;-44
2022/01/18 07:02:38;;;;;;;;;;;20.80;42.20;;;;;;6322948;27;20786;-46
2022/01/18 07:05:39;;;;;;;;;;;20.50;41.40;;;;;;6330918;27;19927;-43
2022/01/18 07:08:41;;;;;;;;;;;20.60;41.10;;;;;;6311532;27;20033;-46
2022/01/18 07:11:43;;;;;;;;;;;21.10;41.50;;;;;;6330654;27;21335;-47
2022/01/18 07:14:45;;;;;;;;;;;20.50;41.10;;;;;;6325834;27;20860;-43
2022/01/18 07:17:46;;;;;;;;;;;20.50;41.00;;;;;;6316777;27;21664;-43
2022/01/18 07:20:48;;;;;;;;;;;21.10;41.30;;;;;;6314607;27;20093;-43
2022/01/18 07:23:51;;;;;;;;;;;21.50;41.60;;;;;;6301641;27;19938;-45
2022/01/18 07:26:53;;;;;;;;;;;20.80;40.90;;;;;;6316426;27;19999;-43
2022/01/18 07:29:54;;;;;;;;;;;20.70;40.90;;;;;;6297418;27;19935;-46
2022/01/18 07:32:56;;;;;;;;;;;21.10;40.90;;;;;;6315303;27;20144;-42
2022/01/18 07:35:57;;;;;;;;;;;20.80;41.50;;;;;;6316654;27;19932;-44
2022/01/18 07:38:59;;;;;;;;;;;20.80;40.90;;;;;;6313945;27;20816;-42
2022/01/18 07:42:00;;;;;;;;;;;21.30;40.90;;;;;;6307025;27;20137;-44
2022/01/18 07:45:02;;;;;;;;;;;21.10;40.90;;;;;;6276867;27;19938;-43
2022/01/18 07:48:04;;;;;;;;;;;20.50;40.50;;;;;;6271303;27;20976;-44
2022/01/18 07:51:06;;;;;;;;;;;21.00;40.70;;;;;;6277551;27;20050;-42
2022/01/18 07:54:08;;;;;;;;;;;20.80;40.70;;;;;;6265357;27;20008;-43
2022/01/18 07:57:11;;;;;;;;;;;21.20;40.80;;;;;;6271549;27;22239;-44
2022/01/18 08:00:14;;;;;;;;;;;20.90;40.50;;;;;;6258322;27;19969;-45
2022/01/18 08:03:15;;;;;;;;;;;20.90;40.40;;;;;;6242503;27;19931;-45
2022/01/18 08:06:17;;;;;;;;;;;21.50;40.80;;;;;;6253793;27;19938;-43
2022/01/18 08:09:19;;;;;;;;;;;21.50;40.80;;;;;;6255710;27;19934;-43
2022/01/18 08:12:23;;;;;;;;;;;21.10;41.20;;;;;;6247334;27;21353;-41
2022/01/18 08:15:26;;;;;;;;;;;21.40;40.40;;;;;;6245799;27;19935;-42
2022/01/18 08:18:27;;;;;;;;;;;21.00;40.20;;;;;;6261418;27;24302;-43
2022/01/18 08:21:29;;;;;;;;;;;21.40;40.20;;;;;;6264777;27;20831;-43
2022/01/18 08:24:30;;;;;;;;;;;21.70;40.30;;;;;;6261960;27;19931;-44
2022/01/18 08:27:32;;;;;;;;;;;21.50;40.20;;;;;;6268950;27;19935;-43
2022/01/18 08:30:33;;;;;;;;;;;21.60;40.20;;;;;;6257632;27;19938;-43
2022/01/18 08:33:35;;;;;;;;;;;21.20;40.00;;;;;;6237113;27;19931;-45
2022/01/18 08:36:38;;;;;;;;;;;21.10;39.80;;;;;;6222821;27;19931;-44
2022/01/18 08:39:39;;;;;;;;;;;21.40;40.50;;;;;;6249505;27;20837;-43
2022/01/18 08:42:41;;;;;;;;;;;21.70;40.20;;;;;;6258024;27;20059;-46
2022/01/18 08:45:43;;;;;;;;;;;21.60;40.20;;;;;;6265279;27;19941;-44
2022/01/18 08:48:44;;;;;;;;;;;21.90;39.90;;;;;;6269501;27;20054;-43
2022/01/18 08:51:46;;;;;;;;;;;21.40;39.60;;;;;;6230726;27;20007;-42
2022/01/18 08:54:47;;;;;;;;;;;21.80;40.20;;;;;;6234446;27;21132;-46
2022/01/18 08:57:49;;;;;;;;;;;21.70;39.70;;;;;;6246910;27;19931;-43
2022/01/18 09:00:50;;;;;;;;;;;21.80;39.70;;;;;;6241410;27;19937;-43
2022/01/18 09:03:52;;;;;;;;;;;21.50;39.50;;;;;;6201831;27;19931;-43
2022/01/18 09:06:56;;;;;;;;;;;21.90;39.70;;;;;;6222727;27;20062;-43
2022/01/18 09:10:04;;;;;;;;;;;21.40;39.30;;;;;;6244316;27;21267;-41
2022/01/18 09:13:06;;;;;;;;;;;21.90;39.60;;;;;;6242062;27;21229;-41
2022/01/18 09:16:10;;;;;;;;;;;22.00;39.50;;;;;;6232060;27;20004;-47
2022/01/18 09:19:11;;;;;;;;;;;21.70;39.40;;;;;;6237070;27;20204;-44
2022/01/18 09:22:13;;;;;;;;;;;22.00;39.50;;;;;;6246804;27;19985;-43
2022/01/18 09:25:17;;;;;;;;;;;21.90;39.40;;;;;;6230929;27;19931;-42
2022/01/18 09:28:19;;;;;;;;;;;22.10;39.40;;;;;;6232315;27;19931;-41
2022/01/18 09:31:20;;;;;;;;;;;22.20;39.60;;;;;;6238513;27;20069;-43
2022/01/18 09:34:21;;;;;;;;;;;22.10;39.30;;;;;;6233887;27;19931;-42
2022/01/18 09:37:23;;;;;;;;;;;21.70;39.00;;;;;;6240251;27;19935;-41
2022/01/18 09:40:25;;;;;;;;;;;22.40;39.40;;;;;;6247971;27;19931;-43
2022/01/18 09:43:28;;;;;;;;;;;22.40;39.30;;;;;;6226242;27;19931;-43
2022/01/18 09:46:30;;;;;;;;;;;22.20;39.10;;;;;;6212706;27;21948;-41
2022/01/18 09:49:32;;;;;;;;;;;21.90;38.90;;;;;;6226860;27;19931;-48
2022/01/18 09:52:33;;;;;;;;;;;22.30;39.10;;;;;;6227821;27;19931;-41
2022/01/18 09:55:36;;;;;;;;;;;22.40;39.20;;;;;;6237553;27;20057;-47
2022/01/18 09:58:38;;;;;;;;;;;22.10;39.00;;;;;;6210838;27;21319;-43
2022/01/18 10:01:39;;;;;;;;;;;22.50;39.00;;;;;;6211935;27;19931;-44
2022/01/18 10:04:42;;;;;;;;;;;22.40;39.10;;;;;;6219126;27;20065;-44
2022/01/18 10:07:43;;;;;;;;;;;22.50;38.90;;;;;;6214304;27;22029;-44
2022/01/18 10:10:45;;;;;;;;;;;22.10;38.80;;;;;;6194392;27;19931;-44
2022/01/18 10:13:49;;;;;;;;;;;22.40;38.90;;;;;;6232912;27;20077;-45
2022/01/18 10:16:51;;;;;;;;;;;22.20;38.70;;;;;;6211438;27;19938;-41
2022/01/18 10:19:52;;;;;;;;;;;22.50;38.90;;;;;;6221664;27;20520;-41
2022/01/18 10:22:54;;;;;;;;;;;22.60;38.90;;;;;;6223567;27;20023;-44
2022/01/18 10:25:55;;;;;;;;;;;22.50;38.90;;;;;;6222613;27;20061;-43
2022/01/18 10:29:00;;;;;;;;;;;22.60;38.90;;;;;;6221017;27;21199;-45
2022/01/18 10:32:11;;;;;;;;;;;22.90;38.90;;;;;;6224936;27;19931;-45
2022/01/18 10:35:13;;;;;;;;;;;22.50;39.40;;;;;;6233284;27;19974;-44
2022/01/18 10:38:16;;;;;;;;;;;22.20;38.50;;;;;;6240344;27;20525;-45
2022/01/18 10:41:22;;;;;;;;;;;22.60;38.70;;;;;;6221288;27;19935;-44
2022/01/18 10:44:24;;;;;;;;;;;22.30;38.50;;;;;;6241972;27;21120;-48
2022/01/18 10:47:26;;;;;;;;;;;22.90;38.70;;;;;;6238434;27;19939;-44
2022/01/18 10:50:31;;;;;;;;;;;22.70;38.60;;;;;;6228503;27;19931;-42
2022/01/18 10:53:32;;;;;;;;;;;22.70;38.60;;;;;;6238818;27;20152;-42
2022/01/18 10:56:37;;;;;;;;;;;22.30;38.40;;;;;;6249470;27;20038;-43
2022/01/18 10:59:41;;;;;;;;;;;22.60;38.50;;;;;;6246752;27;19938;-44
2022/01/18 11:02:43;;;;;;;;;;;23.00;38.70;;;;;;6236007;27;19938;-42
2022/01/18 11:05:46;;;;;;;;;;;22.40;38.30;;;;;;6235584;27;20062;-46
2022/01/18 11:08:51;;;;;;;;;;;22.80;38.70;;;;;;6249372;27;20069;-44
2022/01/18 11:11:52;;;;;;;;;;;22.90;38.60;;;;;;6253153;27;19939;-45
2022/01/18 11:15:04;;;;;;;;;;;22.50;38.30;;;;;;6219437;27;21007;-48
2022/01/18 11:18:13;;;;;;;;;;;22.70;38.40;;;;;;6243516;27;19935;-43
2022/01/18 11:21:18;;;;;;;;;;;22.80;38.50;;;;;;6226797;27;19938;-44
2022/01/18 11:24:20;;;;;;;;;;;22.80;38.60;;;;;;6252274;27;19937;-47
2022/01/18 11:27:21;;;;;;;;;;;22.80;38.40;;;;;;6246675;27;19931;-44
2022/01/18 11:30:27;;;;;;;;;;;22.80;38.50;;;;;;6241156;27;19931;-46
2022/01/18 11:33:30;;;;;;;;;;;22.90;38.60;;;;;;6256769;27;20859;-43
2022/01/18 11:36:35;;;;;;;;;;;23.00;38.60;;;;;;6265314;27;20031;-42
2022/01/18 11:39:37;;;;;;;;;;;22.40;38.30;;;;;;6282711;27;19932;-44
2022/01/18 11:42:40;;;;;;;;;;;22.80;38.50;;;;;;6276366;27;19931;-44
2022/01/18 11:45:43;;;;;;;;;;;23.10;38.60;;;;;;6284380;27;19931;-44
2022/01/18 11:48:45;;;;;;;;;;;22.80;38.60;;;;;;6265269;27;21109;-42
2022/01/18 11:51:48;;;;;;;;;;;22.40;38.40;;;;;;6284668;27;19978;-44
2022/01/18 11:54:57;;;;;;;;;;;22.90;38.60;;;;;;6285167;27;20045;-42
2022/01/18 11:58:10;;;;;;;;;;;22.70;38.60;;;;;;6290699;27;21060;-45
2022/01/18 12:01:13;;;;;;;;;;;23.00;38.60;;;;;;6296669;27;20079;-43
2022/01/18 12:04:36;;;;;;;;;;;22.50;38.70;;;;;;6279900;27;20053;-44
2022/01/18 12:07:51;;;;;;;;;;;22.50;38.50;;;;;;6255791;27;19979;-47
2022/01/18 12:10:54;;;;;;;;;;;22.60;38.50;;;;;;6268490;27;19931;-46
2022/01/18 12:13:57;;;;;;;;;;;23.00;38.60;;;;;;6266366;27;19932;-42
2022/01/18 12:17:11;;;;;;;;;;;22.50;38.30;;;;;;6268939;27;21046;-42
2022/01/18 12:20:22;;;;;;;;;;;23.00;38.50;;;;;;6289441;27;21880;-46
2022/01/18 12:23:24;;;;;;;;;;;22.90;38.50;;;;;;6282464;27;19931;-45
2022/01/18 12:26:31;;;;;;;;;;;22.90;38.40;;;;;;6251082;27;20053;-44
2022/01/18 12:29:47;;;;;;;;;;;22.50;38.30;;;;;;6253901;27;19935;-48
2022/01/18 12:33:10;;;;;;;;;;;22.80;38.40;;;;;;6267949;27;20008;-44
2022/01/18 12:36:27;;;;;;;;;;;22.50;38.60;;;;;;6232120;27;19931;-45
2022/01/18 12:39:28;;;;;;;;;;;22.90;38.50;;;;;;6268546;27;19952;-45
2022/01/18 12:45:48;;;;;;;;;;;22.70;38.40;;;;;;6270503;27;19938;-44
2022/01/18 12:48:53;;;;;;;;;;;23.00;38.50;;;;;;6279941;27;19931;-49
2022/01/18 12:51:55;;;;;;;;;;;22.50;38.20;;;;;;6272114;27;20050;-44
2022/01/18 12:54:56;;;;;;;;;;;22.60;38.30;;;;;;6266189;27;19931;-45
2022/01/18 12:57:58;;;;;;;;;;;22.30;38.20;;;;;;6261183;27;20057;-46
2022/01/18 13:01:00;;;;;;;;;;;23.00;38.40;;;;;;6219616;27;19937;-43
2022/01/18 13:04:06;;;;;;;;;;;23.00;38.40;;;;;;6210484;27;20055;-41
2022/01/18 13:07:08;;;;;;;;;;;22.80;38.30;;;;;;6219641;27;19931;-44
2022/01/18 13:10:09;;;;;;;;;;;22.70;38.90;;;;;;6223857;27;20004;-44
2022/01/18 13:13:14;;;;;;;;;;;22.70;38.30;;;;;;6229120;27;19939;-43
2022/01/18 13:22:59;;;;;;;;;;;22.40;37.90;;;;;;6229717;27;21839;-45
2022/01/18 13:26:02;;;;;;;;;;;22.90;38.10;;;;;;6225434;27;19932;-43
2022/01/18 13:29:12;;;;;;;;;;;23.00;38.40;;;;;;6252335;27;19981;-42
2022/01/18 13:32:17;;;;;;;;;;;23.10;38.20;;;;;;6243448;27;19931;-44
2022/01/18 13:35:19;;;;;;;;;;;23.10;38.30;;;;;;6228322;27;21552;-44
2022/01/18 13:38:22;;;;;;;;;;;22.80;37.90;;;;;;6230404;27;19931;-44
2022/01/18 13:41:24;;;;;;;;;;;23.00;38.00;;;;;;6256987;27;20058;-44
2022/01/18 13:44:26;;;;;;;;;;;22.80;37.90;;;;;;6243944;27;20218;-44
2022/01/18 13:47:36;;;;;;;;;;;22.80;37.90;;;;;;6244735;27;20710;-44
2022/01/18 13:50:40;;;;;;;;;;;22.90;37.90;;;;;;6204813;27;21289;-43
2022/01/18 13:53:42;;;;;;;;;;;22.90;37.90;;;;;;6233034;27;20589;-44
2022/01/18 13:56:47;;;;;;;;;;;22.80;37.80;;;;;;6217580;27;19938;-42
2022/01/18 13:59:49;;;;;;;;;;;22.90;37.90;;;;;;6255000;27;19935;-43
2022/01/18 14:02:51;;;;;;;;;;;23.30;38.10;;;;;;6246586;27;19991;-41
2022/01/18 14:05:53;;;;;;;;;;;23.20;38.10;;;;;;6247452;27;19935;-41
2022/01/18 14:08:54;;;;;;;;;;;22.60;37.80;;;;;;6262429;27;20042;-41
2022/01/18 14:11:56;;;;;;;;;;;23.00;38.00;;;;;;6236301;27;20103;-45
2022/01/18 14:14:58;;;;;;;;;;;23.30;38.10;;;;;;6242432;27;19935;-43
2022/01/18 14:18:02;;;;;;;;;;;22.70;37.80;;;;;;6231549;27;20061;-44
2022/01/18 14:21:22;;;;;;;;;;;22.90;37.90;;;;;;6244517;27;19951;-44
2022/01/18 14:24:24;;;;;;;;;;;23.10;37.90;;;;;;6235419;27;19980;-49
2022/01/18 14:27:28;;;;;;;;;;;22.70;37.70;;;;;;6207452;27;19931;-46
2022/01/18 14:30:29;;;;;;;;;;;23.10;37.90;;;;;;6248273;27;21002;-42
2022/01/18 14:33:31;;;;;;;;;;;23.10;37.90;;;;;;6257323;27;20004;-45
2022/01/18 14:36:32;;;;;;;;;;;23.30;38.10;;;;;;6248009;27;20471;-47
2022/01/18 14:39:50;;;;;;;;;;;23.00;37.80;;;;;;6236623;27;19938;-43
2022/01/18 14:42:56;;;;;;;;;;;22.80;37.70;;;;;;6212662;27;20070;-43
2022/01/18 14:46:01;;;;;;;;;;;23.30;37.90;;;;;;6223031;27;19931;-45
2022/01/18 14:49:09;;;;;;;;;;;23.30;37.90;;;;;;6230854;27;20207;-43
2022/01/18 14:52:10;;;;;;;;;;;23.00;37.80;;;;;;6221571;27;20607;-43
2022/01/18 14:55:12;;;;;;;;;;;23.00;37.70;;;;;;6235342;27;19938;-41
2022/01/18 14:58:14;;;;;;;;;;;23.40;38.00;;;;;;6250187;27;20921;-44
2022/01/18 15:01:15;;;;;;;;;;;23.30;37.80;;;;;;6218319;27;19931;-43
2022/01/18 15:04:17;;;;;;;;;;;23.30;37.90;;;;;;6229803;27;19942;-41
2022/01/18 15:07:19;;;;;;;;;;;23.10;37.70;;;;;;6250138;27;19931;-43
2022/01/18 15:10:21;;;;;;;;;;;23.00;37.70;;;;;;6245954;27;19937;-44
2022/01/18 15:13:23;;;;;;;;;;;22.90;37.60;;;;;;6214836;27;19937;-43
2022/01/18 15:16:24;;;;;;;;;;;23.00;37.80;;;;;;6241326;27;20065;-46
2022/01/18 15:19:26;;;;;;;;;;;23.00;37.70;;;;;;6234921;27;19931;-45
2022/01/18 15:22:28;;;;;;;;;;;23.20;37.80;;;;;;6230405;27;19931;-43
2022/01/18 15:25:30;;;;;;;;;;;23.40;37.90;;;;;;6197395;27;21541;-42
2022/01/18 15:28:32;;;;;;;;;;;22.90;37.70;;;;;;6206716;27;20011;-44
2022/01/18 15:31:34;;;;;;;;;;;23.20;37.90;;;;;;6210686;27;21689;-42
2022/01/18 15:34:35;;;;;;;;;;;23.30;37.80;;;;;;6193465;27;21386;-49
2022/01/18 15:37:37;;;;;;;;;;;23.30;37.90;;;;;;6199267;27;19937;-42
2022/01/18 15:40:39;;;;;;;;;;;23.30;37.80;;;;;;6212140;27;19932;-43
2022/01/18 15:43:41;;;;;;;;;;;22.90;37.60;;;;;;6210690;27;23053;-45
2022/01/18 15:46:43;;;;;;;;;;;23.50;38.00;;;;;;6203918;27;19932;-43
2022/01/18 15:49:44;;;;;;;;;;;23.30;37.90;;;;;;6215581;27;19931;-45
2022/01/18 15:52:46;;;;;;;;;;;23.40;38.00;;;;;;6218967;27;20051;-46
2022/01/18 15:55:48;;;;;;;;;;;23.00;37.70;;;;;;6226198;27;20066;-43
2022/01/18 15:58:49;;;;;;;;;;;23.00;37.80;;;;;;6227211;27;22964;-44
2022/01/18 16:01:51;;;;;;;;;;;22.90;37.70;;;;;;6212408;27;19932;-47
2022/01/18 16:04:52;;;;;;;;;;;23.00;37.80;;;;;;6211369;27;24141;-46
2022/01/18 16:07:56;;;;;;;;;;;23.10;38.00;;;;;;6239323;27;21852;-46
2022/01/18 16:10:58;;;;;;;;;;;23.20;38.00;;;;;;6233130;27;20523;-44
2022/01/18 16:13:59;;;;;;;;;;;23.20;38.00;;;;;;6227347;27;20044;-44
2022/01/18 16:17:01;;;;;;;;;;;22.90;37.90;;;;;;6215513;27;19931;-44
2022/01/18 16:20:02;;;;;;;;;;;23.00;37.80;;;;;;6228507;27;19932;-43
2022/01/18 16:23:05;;;;;;;;;;;23.30;37.90;;;;;;6239597;27;20092;-43
2022/01/18 16:26:06;;;;;;;;;;;22.90;38.30;;;;;;6237813;27;19931;-43
2022/01/18 16:29:07;;;;;;;;;;;22.90;37.70;;;;;;6249973;27;20111;-46
2022/01/18 16:32:09;;;;;;;;;;;23.00;37.70;;;;;;6213274;27;20007;-44
2022/01/18 16:35:11;;;;;;;;;;;23.30;37.90;;;;;;6239873;27;20066;-49
2022/01/18 16:38:13;;;;;;;;;;;23.30;38.00;;;;;;6227113;27;22090;-43
2022/01/18 16:41:15;;;;;;;;;;;22.90;37.70;;;;;;6252152;28;19940;-44
2022/01/18 16:44:16;;;;;;;;;;;23.30;37.90;;;;;;6246617;27;21373;-47
2022/01/18 16:47:19;;;;;;;;;;;23.00;37.70;;;;;;6256221;28;19931;-44
2022/01/18 16:50:20;;;;;;;;;;;22.90;37.60;;;;;;6267128;27;19935;-42
2022/01/18 16:53:22;;;;;;;;;;;23.50;37.90;;;;;;6269640;28;20014;-45
2022/01/18 16:56:24;;;;;;;;;;;23.30;37.80;;;;;;6265569;27;19931;-44
2022/01/18 16:59:25;;;;;;;;;;;23.00;37.70;;;;;;6265248;27;20035;-42
2022/01/18 17:02:27;;;;;;;;;;;23.00;37.50;;;;;;6252257;27;19973;-44
2022/01/18 17:05:28;;;;;;;;;;;23.20;37.70;;;;;;6247369;27;19961;-41
2022/01/18 17:08:30;;;;;;;;;;;23.10;37.60;;;;;;6246858;27;20822;-42
2022/01/18 17:11:31;;;;;;;;;;;23.40;37.80;;;;;;6265521;27;19931;-44
2022/01/18 17:14:33;;;;;;;;;;;23.50;37.90;;;;;;6272475;27;19976;-43
2022/01/18 17:17:34;;;;;;;;;;;23.00;37.60;;;;;;6274463;27;20058;-43
2022/01/18 17:20:36;;;;;;;;;;;23.00;37.60;;;;;;6277217;27;19967;-43
2022/01/18 17:23:38;;;;;;;;;;;22.60;37.40;;;;;;6281053;27;20016;-44
2022/01/18 17:26:39;;;;;;;;;;;23.40;37.80;;;;;;6269805;27;19932;-42
2022/01/18 17:29:41;;;;;;;;;;;22.90;37.70;;;;;;6289127;27;19930;-42
2022/01/18 17:32:42;;;;;;;;;;;22.90;37.80;;;;;;6282769;27;20027;-42
2022/01/18 17:35:45;;;;;;;;;;;23.30;37.90;;;;;;6285079;27;19939;-42
2022/01/18 17:38:47;;;;;;;;;;;23.00;37.70;;;;;;6266906;27;19935;-42
2022/01/18 17:41:48;;;;;;;;;;;22.80;37.70;;;;;;6270897;27;20549;-41
2022/01/18 17:44:49;;;;;;;;;;;23.00;37.80;;;;;;6278109;27;20046;-44
2022/01/18 17:47:56;;;;;;;;;;;22.90;37.80;;;;;;6284131;27;20838;-44
2022/01/18 17:50:58;;;;;;;;;;;23.10;37.90;;;;;;6290871;27;21407;-42
2022/01/18 17:54:01;;;;;;;;;;;22.70;37.70;;;;;;6291028;27;21761;-43
2022/01/18 17:57:03;;;;;;;;;;;23.00;37.90;;;;;;6294770;27;20065;-44
2022/01/18 18:00:05;;;;;;;;;;;22.70;37.70;;;;;;6281971;28;19938;-44
2022/01/18 18:03:13;;;;;;;;;;;23.10;38.00;;;;;;6289453;27;19931;-43
2022/01/18 18:06:15;;;;;;;;;;;23.10;38.00;;;;;;6295484;28;20453;-42
2022/01/18 18:09:17;;;;;;;;;;;23.00;37.90;;;;;;6301287;28;19931;-46
2022/01/18 18:12:18;;;;;;;;;;;22.80;37.90;;;;;;6306195;28;19940;-45
2022/01/18 18:15:20;;;;;;;;;;;23.10;38.10;;;;;;6304101;28;19965;-46
2022/01/18 18:18:21;;;;;;;;;;;22.70;38.00;;;;;;6293294;28;20329;-47
2022/01/18 18:21:23;;;;;;;;;;;22.90;38.10;;;;;;6278613;28;20487;-41
2022/01/18 18:24:25;;;;;;;;;;;23.00;38.20;;;;;;6260465;27;19931;-42
2022/01/18 18:27:26;;;;;;;;;;;22.80;38.20;;;;;;6266816;28;20484;-43
2022/01/18 18:30:29;;;;;;;;;;;22.40;38.10;;;;;;6290565;28;19971;-44
2022/01/18 18:33:47;;;;;;;;;;;22.60;38.20;;;;;;6291498;27;19966;-42
2022/01/18 18:36:49;;;;;;;;;;;22.80;38.40;;;;;;6292710;27;20096;-43
2022/01/18 18:40:02;;;;;;;;;;;22.90;38.50;;;;;;6307778;27;19966;-42
2022/01/18 18:43:13;;;;;;;;;;;22.10;38.10;;;;;;6310602;28;19967;-48
2022/01/18 18:46:15;;;;;;;;;;;22.50;38.40;;;;;;6280365;27;21878;-46
2022/01/18 18:49:16;;;;;;;;;;;22.30;38.40;;;;;;6283641;28;19932;-41
2022/01/18 18:52:20;;;;;;;;;;;22.50;38.50;;;;;;6290939;27;20272;-44
2022/01/18 18:55:22;;;;;;;;;;;22.50;38.40;;;;;;6294573;28;20054;-41
2022/01/18 19:01:44;;;;;;;;;;;22.90;38.70;;;;;;6289921;28;20418;-41
2022/01/18 19:04:49;;;;;;;;;;;22.40;38.60;;;;;;6312439;28;19987;-43